sensor_id;sensor_type;location;lat;lon;timestamp;pressure;altitude;pressure_sealevel;temperature;humidity
84649;BME280;74877;52.392;16.888;2023-12-20T00:00:10;100056.0;;;6.07;96.3
84649;BME280;74877;52.392;16.888;2023-12-20T00:05:11;100044.0;;;6.03;96.58
84649;BME280;74877;52.392;16.888;2023-12-20T00:10:10;100046.0;;;6.01;96.37
84649;BME280;74877;52.392;16.888;2023-12-20T00:15:10;100036.0;;;6.01;96.7
84649;BME280;74877;52.392;16.888;2023-12-20T00:20:11;100037.0;;;6.06;96.38
84649;BME280;74877;52.392;16.888;2023-12-20T00:25:10;100032.0;;;6.0;96.64
84649;BME280;74877;52.392;16.888;2023-12-20T00:30:10;100034.0;;;5.96;96.69
84649;BME280;74877;52.392;16.888;2023-12-20T00:35:10;100030.0;;;5.95;96.74
84649;BME280;74877;52.392;16.888;2023-12-20T00:40:10;100030.0;;;5.93;96.89
84649;BME280;74877;52.392;16.888;2023-12-20T00:45:11;100028.0;;;5.95;96.84
84649;BME280;74877;52.392;16.888;2023-12-20T00:50:10;100029.0;;;5.87;96.86
84649;BME280;74877;52.392;16.888;2023-12-20T00:55:10;100030.0;;;5.86;96.88
84649;BME280;74877;52.392;16.888;2023-12-20T01:00:10;100025.0;;;5.85;96.75
84649;BME280;74877;52.392;16.888;2023-12-20T01:05:10;100028.0;;;5.84;96.63
84649;BME280;74877;52.392;16.888;2023-12-20T01:10:11;100016.0;;;5.86;96.6
84649;BME280;74877;52.392;16.888;2023-12-20T01:15:10;100014.0;;;5.83;96.47
84649;BME280;74877;52.392;16.888;2023-12-20T01:20:10;100019.0;;;5.82;96.5
84649;BME280;74877;52.392;16.888;2023-12-20T01:25:11;100012.0;;;5.83;96.7
84649;BME280;74877;52.392;16.888;2023-12-20T01:30:10;100010.0;;;5.75;96.79
84649;BME280;74877;52.392;16.888;2023-12-20T01:35:10;100005.0;;;5.74;96.78
84649;BME280;74877;52.392;16.888;2023-12-20T01:40:10;100002.0;;;5.74;96.59
84649;BME280;74877;52.392;16.888;2023-12-20T01:45:10;99985.0;;;5.69;96.8
84649;BME280;74877;52.392;16.888;2023-12-20T01:50:11;99975.0;;;5.71;96.8
84649;BME280;74877;52.392;16.888;2023-12-20T01:55:10;99980.0;;;5.64;96.76
84649;BME280;74877;52.392;16.888;2023-12-20T02:00:10;99981.0;;;5.66;96.76
84649;BME280;74877;52.392;16.888;2023-12-20T02:05:10;99973.0;;;5.64;96.74
84649;BME280;74877;52.392;16.888;2023-12-20T02:10:10;99970.0;;;5.64;96.77
84649;BME280;74877;52.392;16.888;2023-12-20T02:15:11;99966.0;;;5.61;97.02
84649;BME280;74877;52.392;16.888;2023-12-20T02:20:10;99963.0;;;5.59;97.02
84649;BME280;74877;52.392;16.888;2023-12-20T02:25:10;99965.0;;;5.56;97.19
84649;BME280;74877;52.392;16.888;2023-12-20T02:30:11;99959.0;;;5.56;97.24
84649;BME280;74877;52.392;16.888;2023-12-20T02:35:10;99952.0;;;5.53;97.02
84649;BME280;74877;52.392;16.888;2023-12-20T02:40:10;99950.0;;;5.5;97.04
84649;BME280;74877;52.392;16.888;2023-12-20T02:45:10;99949.0;;;5.55;96.76
84649;BME280;74877;52.392;16.888;2023-12-20T02:50:10;99947.0;;;5.48;96.87
84649;BME280;74877;52.392;16.888;2023-12-20T02:55:11;99953.0;;;5.54;96.86
84649;BME280;74877;52.392;16.888;2023-12-20T03:00:10;99949.0;;;5.49;96.96
84649;BME280;74877;52.392;16.888;2023-12-20T03:05:10;99949.0;;;5.46;96.96
84649;BME280;74877;52.392;16.888;2023-12-20T03:10:10;99945.0;;;5.46;97.03
84649;BME280;74877;52.392;16.888;2023-12-20T03:15:10;99939.0;;;5.43;97.14
84649;BME280;74877;52.392;16.888;2023-12-20T03:20:10;99931.0;;;5.43;96.95
84649;BME280;74877;52.392;16.888;2023-12-20T03:25:10;99927.0;;;5.47;97.03
84649;BME280;74877;52.392;16.888;2023-12-20T03:30:10;99920.0;;;5.39;96.9
84649;BME280;74877;52.392;16.888;2023-12-20T03:35:11;99907.0;;;5.43;97.06
84649;BME280;74877;52.392;16.888;2023-12-20T03:40:10;99923.0;;;5.35;97.21
84649;BME280;74877;52.392;16.888;2023-12-20T03:45:10;99931.0;;;5.39;97.15
84649;BME280;74877;52.392;16.888;2023-12-20T03:50:10;99924.0;;;5.42;96.99
84649;BME280;74877;52.392;16.888;2023-12-20T03:55:10;99926.0;;;5.37;96.9
84649;BME280;74877;52.392;16.888;2023-12-20T04:00:11;99915.0;;;5.38;96.89
84649;BME280;74877;52.392;16.888;2023-12-20T04:05:10;99919.0;;;5.42;96.7
84649;BME280;74877;52.392;16.888;2023-12-20T04:10:10;99917.0;;;5.4;96.89
84649;BME280;74877;52.392;16.888;2023-12-20T04:15:11;99913.0;;;5.4;96.86
84649;BME280;74877;52.392;16.888;2023-12-20T04:20:10;99918.0;;;5.35;97.11
84649;BME280;74877;52.392;16.888;2023-12-20T04:25:10;99914.0;;;5.38;97.06
84649;BME280;74877;52.392;16.888;2023-12-20T04:30:10;99913.0;;;5.38;97.17
84649;BME280;74877;52.392;16.888;2023-12-20T04:35:10;99908.0;;;5.36;97.13
84649;BME280;74877;52.392;16.888;2023-12-20T04:40:11;99909.0;;;5.4;97.06
84649;BME280;74877;52.392;16.888;2023-12-20T04:45:10;99902.0;;;5.33;97.16
84649;BME280;74877;52.392;16.888;2023-12-20T04:50:10;99902.0;;;5.37;97.17
84649;BME280;74877;52.392;16.888;2023-12-20T04:55:10;99894.0;;;5.36;96.97
84649;BME280;74877;52.392;16.888;2023-12-20T05:00:10;99907.0;;;5.37;97.01
84649;BME280;74877;52.392;16.888;2023-12-20T05:05:11;99904.0;;;5.33;97.04
84649;BME280;74877;52.392;16.888;2023-12-20T05:10:10;99907.0;;;5.37;96.98
84649;BME280;74877;52.392;16.888;2023-12-20T05:15:10;99903.0;;;5.39;96.93
84649;BME280;74877;52.392;16.888;2023-12-20T05:20:11;99915.0;;;5.42;96.88
84649;BME280;74877;52.392;16.888;2023-12-20T05:25:10;99898.0;;;5.34;96.94
84649;BME280;74877;52.392;16.888;2023-12-20T05:30:10;99912.0;;;5.35;96.66
84649;BME280;74877;52.392;16.888;2023-12-20T05:35:10;99911.0;;;5.37;96.77
84649;BME280;74877;52.392;16.888;2023-12-20T05:40:10;99906.0;;;5.35;96.87
84649;BME280;74877;52.392;16.888;2023-12-20T05:45:11;99903.0;;;5.37;96.56
84649;BME280;74877;52.392;16.888;2023-12-20T05:50:10;99899.0;;;5.41;96.45
84649;BME280;74877;52.392;16.888;2023-12-20T05:55:10;99908.0;;;5.38;96.38
84649;BME280;74877;52.392;16.888;2023-12-20T06:00:11;99903.0;;;5.43;96.17
84649;BME280;74877;52.392;16.888;2023-12-20T06:05:10;99904.0;;;5.36;96.19
84649;BME280;74877;52.392;16.888;2023-12-20T06:10:10;99905.0;;;5.39;96.03
84649;BME280;74877;52.392;16.888;2023-12-20T06:15:11;99903.0;;;5.39;96.07
84649;BME280;74877;52.392;16.888;2023-12-20T06:25:11;99891.0;;;5.45;95.52
84649;BME280;74877;52.392;16.888;2023-12-20T06:30:10;99896.0;;;5.38;95.78
84649;BME280;74877;52.392;16.888;2023-12-20T06:35:10;99914.0;;;5.36;95.67
84649;BME280;74877;52.392;16.888;2023-12-20T06:40:10;99907.0;;;5.35;95.94
84649;BME280;74877;52.392;16.888;2023-12-20T06:45:10;99908.0;;;5.29;96.0
84649;BME280;74877;52.392;16.888;2023-12-20T06:50:11;99907.0;;;5.26;96.14
84649;BME280;74877;52.392;16.888;2023-12-20T06:55:10;99914.0;;;5.24;95.93
84649;BME280;74877;52.392;16.888;2023-12-20T07:00:10;99922.0;;;5.22;95.88
84649;BME280;74877;52.392;16.888;2023-12-20T07:05:11;99927.0;;;5.25;95.57
84649;BME280;74877;52.392;16.888;2023-12-20T07:10:10;99935.0;;;5.19;95.75
84649;BME280;74877;52.392;16.888;2023-12-20T07:15:10;99945.0;;;5.17;95.86
84649;BME280;74877;52.392;16.888;2023-12-20T07:20:10;99956.0;;;5.15;95.53
84649;BME280;74877;52.392;16.888;2023-12-20T07:25:10;99959.0;;;5.14;95.48
84649;BME280;74877;52.392;16.888;2023-12-20T07:30:11;99962.0;;;5.17;95.32
84649;BME280;74877;52.392;16.888;2023-12-20T07:35:10;99961.0;;;5.16;95.49
84649;BME280;74877;52.392;16.888;2023-12-20T07:40:10;99963.0;;;5.17;95.46
84649;BME280;74877;52.392;16.888;2023-12-20T07:45:10;99977.0;;;5.24;95.49
84649;BME280;74877;52.392;16.888;2023-12-20T07:50:10;99967.0;;;5.26;95.4
84649;BME280;74877;52.392;16.888;2023-12-20T07:55:11;99964.0;;;5.29;95.33
84649;BME280;74877;52.392;16.888;2023-12-20T08:00:10;99960.0;;;5.29;95.04
84649;BME280;74877;52.392;16.888;2023-12-20T08:05:10;99951.0;;;5.26;94.88
84649;BME280;74877;52.392;16.888;2023-12-20T08:10:11;99951.0;;;5.4;94.63
84649;BME280;74877;52.392;16.888;2023-12-20T08:15:10;99942.0;;;5.34;94.48
84649;BME280;74877;52.392;16.888;2023-12-20T08:20:10;99932.0;;;5.34;94.01
84649;BME280;74877;52.392;16.888;2023-12-20T08:25:11;99938.0;;;5.35;93.99
84649;BME280;74877;52.392;16.888;2023-12-20T08:30:10;99935.0;;;5.2;93.46
84649;BME280;74877;52.392;16.888;2023-12-20T08:35:11;99941.0;;;5.21;93.25
84649;BME280;74877;52.392;16.888;2023-12-20T08:40:10;99948.0;;;5.15;93.38
84649;BME280;74877;52.392;16.888;2023-12-20T08:45:10;99941.0;;;5.1;93.73
84649;BME280;74877;52.392;16.888;2023-12-20T08:50:11;99941.0;;;5.22;93.79
84649;BME280;74877;52.392;16.888;2023-12-20T08:55:10;99945.0;;;5.21;93.92
84649;BME280;74877;52.392;16.888;2023-12-20T09:00:10;99958.0;;;5.23;93.57
84649;BME280;74877;52.392;16.888;2023-12-20T09:05:10;99956.0;;;5.19;92.24
84649;BME280;74877;52.392;16.888;2023-12-20T09:10:10;99948.0;;;5.18;92.23
84649;BME280;74877;52.392;16.888;2023-12-20T09:15:11;99934.0;;;6.64;87.17
84649;BME280;74877;52.392;16.888;2023-12-20T09:20:10;99925.0;;;7.35;83.26
84649;BME280;74877;52.392;16.888;2023-12-20T09:25:10;99914.0;;;7.92;81.47
84649;BME280;74877;52.392;16.888;2023-12-20T09:30:10;99919.0;;;8.05;79.76
84649;BME280;74877;52.392;16.888;2023-12-20T09:35:10;99928.0;;;8.16;77.46
84649;BME280;74877;52.392;16.888;2023-12-20T09:40:10;99915.0;;;8.28;78.34
84649;BME280;74877;52.392;16.888;2023-12-20T09:45:10;99920.0;;;7.32;80.41
84649;BME280;74877;52.392;16.888;2023-12-20T09:50:10;99910.0;;;6.38;84.27
84649;BME280;74877;52.392;16.888;2023-12-20T09:55:11;99947.0;;;6.02;84.93
84649;BME280;74877;52.392;16.888;2023-12-20T10:00:10;99903.0;;;5.73;86.51
84649;BME280;74877;52.392;16.888;2023-12-20T10:05:10;99911.0;;;5.73;86.69
84649;BME280;74877;52.392;16.888;2023-12-20T10:10:10;99898.0;;;5.61;86.59
84649;BME280;74877;52.392;16.888;2023-12-20T10:15:10;99889.0;;;5.72;85.87
84649;BME280;74877;52.392;16.888;2023-12-20T10:20:11;99871.0;;;5.92;85.35
84649;BME280;74877;52.392;16.888;2023-12-20T10:25:10;99880.0;;;5.62;85.72
84649;BME280;74877;52.392;16.888;2023-12-20T10:30:10;99875.0;;;5.59;86.06
84649;BME280;74877;52.392;16.888;2023-12-20T10:35:11;99870.0;;;5.49;85.87
84649;BME280;74877;52.392;16.888;2023-12-20T10:40:10;99858.0;;;5.43;86.29
84649;BME280;74877;52.392;16.888;2023-12-20T10:45:10;99841.0;;;5.41;86.41
84649;BME280;74877;52.392;16.888;2023-12-20T10:50:10;99861.0;;;5.4;86.3
84649;BME280;74877;52.392;16.888;2023-12-20T10:55:10;99851.0;;;5.41;86.35
84649;BME280;74877;52.392;16.888;2023-12-20T11:00:11;99838.0;;;5.43;86.79
84649;BME280;74877;52.392;16.888;2023-12-20T11:05:10;99831.0;;;5.4;86.49
84649;BME280;74877;52.392;16.888;2023-12-20T11:10:10;99824.0;;;5.47;86.62
84649;BME280;74877;52.392;16.888;2023-12-20T11:15:10;99825.0;;;5.43;86.37
84649;BME280;74877;52.392;16.888;2023-12-20T11:20:10;99800.0;;;5.36;86.82
84649;BME280;74877;52.392;16.888;2023-12-20T11:25:11;99804.0;;;5.36;86.69
84649;BME280;74877;52.392;16.888;2023-12-20T11:30:10;99792.0;;;5.41;86.07
84649;BME280;74877;52.392;16.888;2023-12-20T11:35:10;99785.0;;;5.45;86.11
84649;BME280;74877;52.392;16.888;2023-12-20T11:40:11;99788.0;;;5.37;86.61
84649;BME280;74877;52.392;16.888;2023-12-20T11:45:10;99775.0;;;5.31;87.89
84649;BME280;74877;52.392;16.888;2023-12-20T11:50:10;99775.0;;;5.24;88.38
84649;BME280;74877;52.392;16.888;2023-12-20T11:55:10;99766.0;;;5.16;89.34
84649;BME280;74877;52.392;16.888;2023-12-20T12:00:10;99759.0;;;5.12;89.99
84649;BME280;74877;52.392;16.888;2023-12-20T12:05:11;99754.0;;;5.19;89.02
84649;BME280;74877;52.392;16.888;2023-12-20T12:10:10;99746.0;;;5.09;88.74
84649;BME280;74877;52.392;16.888;2023-12-20T12:15:10;99756.0;;;5.11;88.83
84649;BME280;74877;52.392;16.888;2023-12-20T12:20:10;99720.0;;;5.16;88.08
84649;BME280;74877;52.392;16.888;2023-12-20T12:25:10;99722.0;;;5.18;88.24
84649;BME280;74877;52.392;16.888;2023-12-20T12:30:11;99710.0;;;5.17;87.8
84649;BME280;74877;52.392;16.888;2023-12-20T12:35:10;99695.0;;;5.12;87.41
84649;BME280;74877;52.392;16.888;2023-12-20T12:40:10;99694.0;;;5.18;87.51
84649;BME280;74877;52.392;16.888;2023-12-20T12:45:10;99693.0;;;5.18;86.54
84649;BME280;74877;52.392;16.888;2023-12-20T12:50:10;99683.0;;;5.19;86.36
84649;BME280;74877;52.392;16.888;2023-12-20T12:55:10;99687.0;;;5.25;86.7
84649;BME280;74877;52.392;16.888;2023-12-20T13:00:10;99680.0;;;5.3;86.12
84649;BME280;74877;52.392;16.888;2023-12-20T13:05:10;99680.0;;;5.35;85.61
84649;BME280;74877;52.392;16.888;2023-12-20T13:10:11;99678.0;;;5.38;84.89
84649;BME280;74877;52.392;16.888;2023-12-20T13:15:10;99647.0;;;5.32;85.01
84649;BME280;74877;52.392;16.888;2023-12-20T13:20:10;99654.0;;;5.39;84.66
84649;BME280;74877;52.392;16.888;2023-12-20T13:25:10;99637.0;;;5.71;84.41
84649;BME280;74877;52.392;16.888;2023-12-20T13:30:10;99626.0;;;5.54;83.85
84649;BME280;74877;52.392;16.888;2023-12-20T13:35:11;99634.0;;;5.48;83.45
84649;BME280;74877;52.392;16.888;2023-12-20T13:40:10;99623.0;;;5.47;83.24
84649;BME280;74877;52.392;16.888;2023-12-20T13:45:10;99629.0;;;5.47;82.89
84649;BME280;74877;52.392;16.888;2023-12-20T13:50:10;99617.0;;;5.53;83.03
84649;BME280;74877;52.392;16.888;2023-12-20T13:55:10;99607.0;;;5.53;83.1
84649;BME280;74877;52.392;16.888;2023-12-20T14:00:10;99606.0;;;5.53;82.71
84649;BME280;74877;52.392;16.888;2023-12-20T14:05:10;99623.0;;;5.55;82.69
84649;BME280;74877;52.392;16.888;2023-12-20T14:10:10;99602.0;;;5.52;82.86
84649;BME280;74877;52.392;16.888;2023-12-20T14:15:11;99599.0;;;5.59;83.01
84649;BME280;74877;52.392;16.888;2023-12-20T14:20:10;99583.0;;;5.55;82.8
84649;BME280;74877;52.392;16.888;2023-12-20T14:25:10;99581.0;;;5.57;82.47
84649;BME280;74877;52.392;16.888;2023-12-20T14:30:10;99579.0;;;5.61;81.81
84649;BME280;74877;52.392;16.888;2023-12-20T14:40:11;99559.0;;;5.67;81.02
84649;BME280;74877;52.392;16.888;2023-12-20T14:50:10;99550.0;;;5.52;83.39
84649;BME280;74877;52.392;16.888;2023-12-20T14:55:10;99535.0;;;5.35;84.57
84649;BME280;74877;52.392;16.888;2023-12-20T15:00:10;99539.0;;;5.28;84.98
84649;BME280;74877;52.392;16.888;2023-12-20T15:05:10;99534.0;;;5.19;85.78
84649;BME280;74877;52.392;16.888;2023-12-20T15:10:10;99540.0;;;5.22;85.63
84649;BME280;74877;52.392;16.888;2023-12-20T15:15:10;99530.0;;;5.26;84.77
84649;BME280;74877;52.392;16.888;2023-12-20T15:20:11;99551.0;;;5.31;85.11
84649;BME280;74877;52.392;16.888;2023-12-20T15:25:10;99537.0;;;5.31;84.78
84649;BME280;74877;52.392;16.888;2023-12-20T15:30:10;99551.0;;;5.29;84.72
84649;BME280;74877;52.392;16.888;2023-12-20T15:35:10;99570.0;;;5.09;87.09
84649;BME280;74877;52.392;16.888;2023-12-20T15:40:10;99571.0;;;4.72;89.84
84649;BME280;74877;52.392;16.888;2023-12-20T15:45:10;99539.0;;;4.34;91.31
84649;BME280;74877;52.392;16.888;2023-12-20T15:50:10;99549.0;;;4.23;92.05
84649;BME280;74877;52.392;16.888;2023-12-20T15:55:10;99541.0;;;4.05;92.4
84649;BME280;74877;52.392;16.888;2023-12-20T16:00:11;99533.0;;;3.96;92.75
84649;BME280;74877;52.392;16.888;2023-12-20T16:05:10;99529.0;;;3.81;93.1
84649;BME280;74877;52.392;16.888;2023-12-20T16:10:10;99599.0;;;3.74;94.01
84649;BME280;74877;52.392;16.888;2023-12-20T16:15:10;99640.0;;;2.84;89.89
84649;BME280;74877;52.392;16.888;2023-12-20T16:20:10;99586.0;;;2.33;92.29
84649;BME280;74877;52.392;16.888;2023-12-20T16:25:11;99563.0;;;2.35;93.38
84649;BME280;74877;52.392;16.888;2023-12-20T16:30:10;99561.0;;;2.32;93.73
84649;BME280;74877;52.392;16.888;2023-12-20T16:35:10;99558.0;;;2.31;93.51
84649;BME280;74877;52.392;16.888;2023-12-20T16:40:10;99553.0;;;2.39;93.15
84649;BME280;74877;52.392;16.888;2023-12-20T16:45:10;99562.0;;;2.4;93.0
84649;BME280;74877;52.392;16.888;2023-12-20T16:50:11;99566.0;;;2.41;93.12
84649;BME280;74877;52.392;16.888;2023-12-20T16:55:10;99576.0;;;2.42;93.53
84649;BME280;74877;52.392;16.888;2023-12-20T17:00:10;99586.0;;;2.41;93.91
84649;BME280;74877;52.392;16.888;2023-12-20T17:05:11;99582.0;;;2.63;94.21
84649;BME280;74877;52.392;16.888;2023-12-20T17:10:10;99577.0;;;2.8;94.27
84649;BME280;74877;52.392;16.888;2023-12-20T17:15:10;99573.0;;;3.16;93.54
84649;BME280;74877;52.392;16.888;2023-12-20T17:20:11;99579.0;;;3.41;92.78
84649;BME280;74877;52.392;16.888;2023-12-20T17:25:10;99579.0;;;3.6;90.91
84649;BME280;74877;52.392;16.888;2023-12-20T17:30:11;99584.0;;;3.74;90.83
84649;BME280;74877;52.392;16.888;2023-12-20T17:35:10;99580.0;;;3.82;89.7
84649;BME280;74877;52.392;16.888;2023-12-20T17:40:10;99580.0;;;3.91;88.92
84649;BME280;74877;52.392;16.888;2023-12-20T17:45:11;99603.0;;;3.98;87.79
84649;BME280;74877;52.392;16.888;2023-12-20T17:50:10;99600.0;;;3.89;88.18
84649;BME280;74877;52.392;16.888;2023-12-20T17:55:10;99604.0;;;3.88;88.47
84649;BME280;74877;52.392;16.888;2023-12-20T18:00:10;99602.0;;;3.89;87.63
84649;BME280;74877;52.392;16.888;2023-12-20T18:05:10;99609.0;;;3.89;87.1
84649;BME280;74877;52.392;16.888;2023-12-20T18:10:11;99625.0;;;3.89;86.44
84649;BME280;74877;52.392;16.888;2023-12-20T18:15:10;99623.0;;;3.85;86.29
84649;BME280;74877;52.392;16.888;2023-12-20T18:20:10;99642.0;;;3.84;87.01
84649;BME280;74877;52.392;16.888;2023-12-20T18:25:11;99646.0;;;3.79;85.77
84649;BME280;74877;52.392;16.888;2023-12-20T18:30:10;99650.0;;;3.76;85.77
84649;BME280;74877;52.392;16.888;2023-12-20T18:35:10;99648.0;;;3.66;86.45
84649;BME280;74877;52.392;16.888;2023-12-20T18:40:10;99647.0;;;3.59;86.61
84649;BME280;74877;52.392;16.888;2023-12-20T18:45:10;99643.0;;;3.54;86.91
84649;BME280;74877;52.392;16.888;2023-12-20T18:50:11;99650.0;;;3.6;86.73
84649;BME280;74877;52.392;16.888;2023-12-20T18:55:10;99658.0;;;3.46;87.59
84649;BME280;74877;52.392;16.888;2023-12-20T19:00:10;99661.0;;;3.44;87.65
84649;BME280;74877;52.392;16.888;2023-12-20T19:10:10;99655.0;;;3.56;87.12
84649;BME280;74877;52.392;16.888;2023-12-20T19:15:11;99654.0;;;3.59;87.37
84649;BME280;74877;52.392;16.888;2023-12-20T19:20:10;99655.0;;;3.57;87.94
84649;BME280;74877;52.392;16.888;2023-12-20T19:25:10;99644.0;;;3.56;87.91
84649;BME280;74877;52.392;16.888;2023-12-20T19:30:11;99647.0;;;3.61;88.67
84649;BME280;74877;52.392;16.888;2023-12-20T19:35:10;99648.0;;;3.6;88.96
84649;BME280;74877;52.392;16.888;2023-12-20T19:40:10;99660.0;;;3.64;88.45
84649;BME280;74877;52.392;16.888;2023-12-20T19:45:10;99656.0;;;3.65;88.2
84649;BME280;74877;52.392;16.888;2023-12-20T19:50:10;99665.0;;;3.63;87.4
84649;BME280;74877;52.392;16.888;2023-12-20T19:55:11;99663.0;;;3.78;86.59
84649;BME280;74877;52.392;16.888;2023-12-20T20:00:10;99655.0;;;3.71;86.48
84649;BME280;74877;52.392;16.888;2023-12-20T20:05:10;99654.0;;;3.75;86.48
84649;BME280;74877;52.392;16.888;2023-12-20T20:10:10;99655.0;;;3.78;86.6
84649;BME280;74877;52.392;16.888;2023-12-20T20:15:10;99647.0;;;3.79;86.48
84649;BME280;74877;52.392;16.888;2023-12-20T20:20:10;99646.0;;;3.79;86.7
84649;BME280;74877;52.392;16.888;2023-12-20T20:25:10;99657.0;;;3.78;86.42
84649;BME280;74877;52.392;16.888;2023-12-20T20:30:10;99651.0;;;3.68;86.49
84649;BME280;74877;52.392;16.888;2023-12-20T20:35:11;99646.0;;;3.69;86.26
84649;BME280;74877;52.392;16.888;2023-12-20T20:40:10;99646.0;;;3.62;86.14
84649;BME280;74877;52.392;16.888;2023-12-20T20:45:10;99646.0;;;3.58;86.08
84649;BME280;74877;52.392;16.888;2023-12-20T20:50:10;99665.0;;;3.56;86.36
84649;BME280;74877;52.392;16.888;2023-12-20T20:55:10;99670.0;;;3.52;86.91
84649;BME280;74877;52.392;16.888;2023-12-20T21:00:11;99674.0;;;3.55;86.7
84649;BME280;74877;52.392;16.888;2023-12-20T21:05:10;99678.0;;;3.55;87.1
84649;BME280;74877;52.392;16.888;2023-12-20T21:10:10;99673.0;;;3.58;87.01
84649;BME280;74877;52.392;16.888;2023-12-20T21:15:10;99667.0;;;3.68;86.82
84649;BME280;74877;52.392;16.888;2023-12-20T21:20:10;99670.0;;;3.72;86.98
84649;BME280;74877;52.392;16.888;2023-12-20T21:25:11;99661.0;;;3.77;86.76
84649;BME280;74877;52.392;16.888;2023-12-20T21:30:10;99665.0;;;3.84;86.41
84649;BME280;74877;52.392;16.888;2023-12-20T21:35:10;99646.0;;;3.89;85.94
84649;BME280;74877;52.392;16.888;2023-12-20T21:40:11;99645.0;;;4.01;85.91
84649;BME280;74877;52.392;16.888;2023-12-20T21:45:10;99651.0;;;4.01;85.45
84649;BME280;74877;52.392;16.888;2023-12-20T21:50:10;99644.0;;;4.06;85.05
84649;BME280;74877;52.392;16.888;2023-12-20T21:55:10;99640.0;;;4.11;84.66
84649;BME280;74877;52.392;16.888;2023-12-20T22:00:10;99640.0;;;4.13;84.29
84649;BME280;74877;52.392;16.888;2023-12-20T22:05:11;99646.0;;;4.17;84.23
84649;BME280;74877;52.392;16.888;2023-12-20T22:10:10;99628.0;;;4.19;84.43
84649;BME280;74877;52.392;16.888;2023-12-20T22:15:10;99619.0;;;4.14;84.71
84649;BME280;74877;52.392;16.888;2023-12-20T22:20:10;99614.0;;;4.18;84.67
84649;BME280;74877;52.392;16.888;2023-12-20T22:25:10;99613.0;;;4.16;84.49
84649;BME280;74877;52.392;16.888;2023-12-20T22:30:10;99611.0;;;4.21;84.12
84649;BME280;74877;52.392;16.888;2023-12-20T22:45:11;99593.0;;;4.28;84.06
84649;BME280;74877;52.392;16.888;2023-12-20T22:50:10;99595.0;;;4.2;85.16
84649;BME280;74877;52.392;16.888;2023-12-20T22:55:10;99604.0;;;4.06;87.12
84649;BME280;74877;52.392;16.888;2023-12-20T23:00:10;99583.0;;;3.96;87.99
84649;BME280;74877;52.392;16.888;2023-12-20T23:05:10;99572.0;;;3.93;87.57
84649;BME280;74877;52.392;16.888;2023-12-20T23:10:11;99562.0;;;3.93;87.98
84649;BME280;74877;52.392;16.888;2023-12-20T23:15:10;99548.0;;;3.84;88.21
84649;BME280;74877;52.392;16.888;2023-12-20T23:20:10;99546.0;;;3.86;87.88
84649;BME280;74877;52.392;16.888;2023-12-20T23:25:10;99543.0;;;3.9;87.68
84649;BME280;74877;52.392;16.888;2023-12-20T23:30:10;99543.0;;;3.95;87.17
84649;BME280;74877;52.392;16.888;2023-12-20T23:35:11;99538.0;;;3.96;86.96
84649;BME280;74877;52.392;16.888;2023-12-20T23:40:10;99530.0;;;3.97;85.94
84649;BME280;74877;52.392;16.888;2023-12-20T23:45:10;99511.0;;;4.0;86.12
84649;BME280;74877;52.392;16.888;2023-12-20T23:50:10;99502.0;;;4.0;86.21
84649;BME280;74877;52.392;16.888;2023-12-20T23:55:10;99495.0;;;4.01;85.83
